Sunkist, California
Current Conditions -  °F | °C
As of 11:53 PM on Sunday 25 Jan 2015 (Local Time) from KFUL Reporting Station
Clear Clear  
Wind Chill: 64°   Ceiling: Unl
Heat Index: 64°   Visibility: 10mi
Dew Point: 32°   Wind: 5mph
Humidity: 30%   Direction: 50°NE
Pressure: 30.01"   Gusts: NA
Location:  33.8393°N, 117.87°W
Report Text: KFUL 260753Z 05004KT 10SM CLR 18/00 A3001 RMK AO2 SLP162 T01780000 402940122
Loading
Personal Weather Stations






























Interactive Weather Map New forecast layout! Learn more

10-Day Weather Forecast

Advertisements
Track Severe Weather on mobile